Time;durP1;ratioP1;P1;durP2;ratioP2;P2;SDS_P1;SDS_P2;PMS_P1;PMS_P2;Temp;Humidity;BMP_temperature;BMP_pressure;BME280_temperature;BME280_humidity;BME280_pressure;Samples;Min_cycle;Max_cycle;Signal;HPM_P1;HPM_P2
2023/10/12 00:02:00;;;;;;;9.52;6.47;;;;;;;;;;5087016;28;20040;-75
2023/10/12 00:04:35;;;;;;;32.95;18.60;;;;;;;;;;5092025;28;20054;-75
2023/10/12 00:07:09;;;;;;;19.60;11.98;;;;;;;;;;5094127;28;20092;-75
2023/10/12 00:09:34;;;;;;;17.80;11.15;;;;;;;;;;5093325;28;20059;-75
2023/10/12 00:12:07;;;;;;;28.30;14.85;;;;;;;;;;5095436;28;20059;-76
2023/10/12 00:14:33;;;;;;;16.38;10.35;;;;;;;;;;5111651;28;20035;-77
2023/10/12 00:16:58;;;;;;;20.20;14.73;;;;;;;;;;5093430;28;20312;-78
2023/10/12 00:19:24;;;;;;;22.80;15.13;;;;;;;;;;5096017;28;20056;-74
2023/10/12 00:21:56;;;;;;;27.15;16.63;;;;;;;;;;5095571;28;20028;-75
2023/10/12 00:24:21;;;;;;;29.00;18.08;;;;;;;;;;5090873;28;20126;-79
2023/10/12 00:26:47;;;;;;;32.00;18.65;;;;;;;;;;5085607;28;20110;-75
2023/10/12 00:29:12;;;;;;;25.83;16.08;;;;;;;;;;5095002;28;20055;-78
2023/10/12 00:31:39;;;;;;;18.55;12.73;;;;;;;;;;5093760;28;20040;-76
2023/10/12 00:34:04;;;;;;;16.90;10.18;;;;;;;;;;5095126;28;20070;-77
2023/10/12 00:36:30;;;;;;;13.95;9.45;;;;;;;;;;5098564;28;20035;-75
2023/10/12 00:38:56;;;;;;;11.82;7.63;;;;;;;;;;5093394;28;20082;-76
2023/10/12 00:41:24;;;;;;;13.18;8.23;;;;;;;;;;5110785;27;20334;-76
2023/10/12 00:44:10;;;;;;;17.40;11.30;;;;;;;;;;5101204;28;20035;-75
2023/10/12 00:51:53;;;;;;;17.98;12.57;;;;;;;;;;5097210;28;20035;-74
2023/10/12 00:57:16;;;;;;;13.65;7.88;;;;;;;;;;5117182;27;20395;-77
2023/10/12 00:59:43;;;;;;;11.80;6.40;;;;;;;;;;5115161;27;20031;-76
2023/10/12 01:02:09;;;;;;;8.38;6.40;;;;;;;;;;5100739;27;20044;-77
2023/10/12 01:04:42;;;;;;;12.30;8.52;;;;;;;;;;5111934;27;20602;-76
2023/10/12 01:07:10;;;;;;;11.68;8.85;;;;;;;;;;5097261;27;20039;-79
2023/10/12 01:09:39;;;;;;;12.98;6.47;;;;;;;;;;5117943;27;20489;-76
2023/10/12 01:12:06;;;;;;;8.77;6.53;;;;;;;;;;5115293;27;20027;-75
2023/10/12 01:14:32;;;;;;;11.40;7.75;;;;;;;;;;5113687;27;20159;-76
2023/10/12 01:19:23;;;;;;;13.32;7.28;;;;;;;;;;5103316;27;20031;-76
2023/10/12 01:22:13;;;;;;;9.82;5.75;;;;;;;;;;5086000;27;20070;-77
2023/10/12 01:24:57;;;;;;;13.55;7.97;;;;;;;;;;5114352;27;20056;-74
2023/10/12 01:27:25;;;;;;;14.90;11.80;;;;;;;;;;5105098;27;20042;-74
2023/10/12 01:29:51;;;;;;;15.05;12.57;;;;;;;;;;5097409;27;20035;-78
2023/10/12 01:35:16;;;;;;;8.13;6.80;;;;;;;;;;5099544;27;20047;-74
2023/10/12 01:37:55;;;;;;;8.48;5.82;;;;;;;;;;5095293;28;20074;-76
2023/10/12 01:40:24;;;;;;;8.20;5.40;;;;;;;;;;5098082;28;20124;-76
2023/10/12 01:45:19;;;;;;;7.43;5.82;;;;;;;;;;5096669;28;20438;-75
2023/10/12 01:47:44;;;;;;;;;;;;;;;;;;5098625;28;20056;-77
2023/10/12 01:50:10;;;;;;;10.95;7.47;;;;;;;;;;5094777;28;19908;-76
2023/10/12 01:52:35;;;;;;;12.68;8.65;;;;;;;;;;5094664;28;20123;-75
2023/10/12 01:55:01;;;;;;;10.82;8.75;;;;;;;;;;5098706;28;20099;-76
2023/10/12 01:57:35;;;;;;;10.50;8.30;;;;;;;;;;5094278;28;20039;-76
2023/10/12 02:00:15;;;;;;;15.07;8.32;;;;;;;;;;5089609;28;20198;-77
2023/10/12 02:02:48;;;;;;;13.77;5.78;;;;;;;;;;5084241;28;20032;-77
2023/10/12 02:05:23;;;;;;;8.45;5.00;;;;;;;;;;5097032;28;20399;-76
2023/10/12 02:07:52;;;;;;;8.00;4.75;;;;;;;;;;5094968;28;20032;-74
2023/10/12 02:10:17;;;;;;;6.05;4.47;;;;;;;;;;5095587;28;20089;-76
2023/10/12 02:12:43;;;;;;;5.00;4.15;;;;;;;;;;5097704;28;20024;-75
2023/10/12 02:15:14;;;;;;;8.55;4.68;;;;;;;;;;5099104;28;20029;-75
2023/10/12 02:17:42;;;;;;;6.20;4.53;;;;;;;;;;5095620;28;20035;-76
2023/10/12 02:20:11;;;;;;;6.90;5.32;;;;;;;;;;5086876;28;20035;-76
2023/10/12 02:22:36;;;;;;;12.50;5.65;;;;;;;;;;5094964;28;20463;-76
2023/10/12 02:25:18;;;;;;;7.72;5.50;;;;;;;;;;5095703;28;20035;-76
2023/10/12 02:27:54;;;;;;;10.68;6.10;;;;;;;;;;5094645;28;20032;-75
2023/10/12 02:30:20;;;;;;;9.25;5.95;;;;;;;;;;5093443;28;20412;-75
2023/10/12 02:33:00;;;;;;;8.90;6.20;;;;;;;;;;5097809;27;20035;-78
2023/10/12 02:35:25;;;;;;;8.52;6.70;;;;;;;;;;5097991;28;20399;-76
2023/10/12 02:37:50;;;;;;;13.60;9.00;;;;;;;;;;5093796;28;20035;-78
2023/10/12 02:40:16;;;;;;;6.50;5.35;;;;;;;;;;5099462;28;20036;-77
2023/10/12 02:42:43;;;;;;;8.27;5.30;;;;;;;;;;5094156;28;20038;-77
2023/10/12 02:45:16;;;;;;;8.60;5.20;;;;;;;;;;5095876;28;20024;-76
2023/10/12 02:47:42;;;;;;;8.63;4.78;;;;;;;;;;5093447;28;20030;-75
2023/10/12 02:52:35;;;;;;;5.55;3.83;;;;;;;;;;5095016;28;20027;-77
2023/10/12 02:57:53;;;;;;;7.97;4.78;;;;;;;;;;5093252;28;20367;-78
2023/10/12 03:00:21;;;;;;;5.22;4.15;;;;;;;;;;5094237;28;20016;-75
2023/10/12 03:02:48;;;;;;;7.95;4.30;;;;;;;;;;5084027;28;20074;-74
2023/10/12 03:05:17;;;;;;;9.52;4.00;;;;;;;;;;5082239;28;20030;-76
2023/10/12 03:07:44;;;;;;;6.25;4.25;;;;;;;;;;5093871;28;20028;-76
2023/10/12 03:10:24;;;;;;;7.30;5.32;;;;;;;;;;5095291;27;20105;-75
2023/10/12 03:12:54;;;;;;;10.82;5.85;;;;;;;;;;5091828;28;20027;-77
2023/10/12 03:15:21;;;;;;;11.27;5.93;;;;;;;;;;5093243;28;20035;-77
2023/10/12 03:17:53;;;;;;;9.80;6.93;;;;;;;;;;5095644;28;20028;-75
2023/10/12 03:20:29;;;;;;;12.43;7.05;;;;;;;;;;5092318;28;20030;-76
2023/10/12 03:22:59;;;;;;;14.48;6.80;;;;;;;;;;5092104;28;20036;-74
2023/10/12 03:25:43;;;;;;;9.35;6.40;;;;;;;;;;5112530;27;20395;-73
2023/10/12 03:28:30;;;;;;;9.88;5.38;;;;;;;;;;5095963;28;20020;-73
2023/10/12 03:33:59;;;;;;;7.55;4.97;;;;;;;;;;5091960;28;20101;-74
2023/10/12 03:36:32;;;;;;;7.18;5.10;;;;;;;;;;5092330;28;20047;-74
2023/10/12 03:41:55;;;;;;;6.55;4.60;;;;;;;;;;5087957;28;20047;-75
2023/10/12 03:47:15;;;;;;;6.70;4.95;;;;;;;;;;5084825;28;20145;-75
2023/10/12 03:49:57;;;;;;;8.65;6.03;;;;;;;;;;5108164;28;20465;-75
2023/10/12 03:53:16;;;;;;;6.25;5.45;;;;;;;;;;5094301;28;20035;-74
2023/10/12 03:55:26;;;;;;;7.60;5.47;;;;;;;;;;5061622;28;20031;-77
2023/10/12 03:58:05;;;;;;;8.85;6.30;;;;;;;;;;5074020;28;20451;-76
2023/10/12 04:01:05;;;;;;;8.23;5.40;;;;;;;;;;5081497;28;20028;-76
2023/10/12 04:03:20;;;;;;;7.75;5.72;;;;;;;;;;5077549;28;21037;-76
2023/10/12 04:18:32;;;;;;;14.88;9.48;;;;;;;;;;5085470;28;20340;-76
2023/10/12 04:20:57;;;;;;;14.18;12.60;;;;;;;;;;5088494;28;20381;-74
2023/10/12 04:27:08;;;;;;;37.03;24.98;;;;;;;;;;5094394;28;20462;-72
2023/10/12 04:28:56;;;;;;;36.28;25.90;;;;;;;;;;5088231;28;20040;-77
2023/10/12 04:32:15;;;;;;;20.70;17.67;;;;;;;;;;5094443;28;20023;-76
2023/10/12 04:34:16;;;;;;;32.60;29.33;;;;;;;;;;5098291;27;20344;-71
2023/10/12 04:39:16;;;;;;;12.73;9.65;;;;;;;;;;5098510;28;20088;-73
2023/10/12 04:46:48;;;;;;;11.07;8.95;;;;;;;;;;5096693;28;20038;-74
2023/10/12 04:51:41;;;;;;;10.93;7.57;;;;;;;;;;5090334;28;20119;-73
2023/10/12 04:54:17;;;;;;;12.30;6.32;;;;;;;;;;5090141;28;20402;-73
2023/10/12 04:59:26;;;;;;;7.10;6.40;;;;;;;;;;5095789;28;20401;-73
2023/10/12 05:04:36;;;;;;;18.88;13.68;;;;;;;;;;5099298;28;20032;-73
2023/10/12 05:09:51;;;;;;;18.60;15.40;;;;;;;;;;5094159;28;20131;-73
2023/10/12 05:12:16;;;;;;;12.20;10.60;;;;;;;;;;5098140;28;20035;-72
2023/10/12 05:14:42;;;;;;;13.90;9.73;;;;;;;;;;5091014;28;20020;-72
2023/10/12 05:17:10;;;;;;;10.57;8.05;;;;;;;;;;5079948;28;20070;-72
2023/10/12 05:19:35;;;;;;;9.45;8.50;;;;;;;;;;5079220;28;20381;-75
2023/10/12 05:22:01;;;;;;;13.25;9.75;;;;;;;;;;5094208;28;20043;-73
2023/10/12 05:24:26;;;;;;;12.38;9.15;;;;;;;;;;5097254;28;20031;-74
2023/10/12 05:26:57;;;;;;;14.68;10.48;;;;;;;;;;5096221;28;20098;-72
2023/10/12 05:32:06;;;;;;;25.42;22.45;;;;;;;;;;5094458;28;20086;-73
2023/10/12 05:37:08;;;;;;;22.85;18.00;;;;;;;;;;5096360;28;20028;-74
2023/10/12 05:39:36;;;;;;;19.13;12.48;;;;;;;;;;5096768;28;20039;-72
2023/10/12 05:42:05;;;;;;;17.25;13.65;;;;;;;;;;5078671;28;20436;-74
2023/10/12 05:44:31;;;;;;;14.90;11.93;;;;;;;;;;5076888;28;20020;-72
2023/10/12 05:46:59;;;;;;;23.35;18.15;;;;;;;;;;5084191;28;20030;-76
2023/10/12 05:49:25;;;;;;;35.33;29.52;;;;;;;;;;5072949;28;21304;-72
2023/10/12 05:51:51;;;;;;;36.50;31.55;;;;;;;;;;5083612;28;20043;-74
2023/10/12 05:54:20;;;;;;;39.13;33.33;;;;;;;;;;5093388;28;20016;-76
2023/10/12 05:56:45;;;;;;;34.67;18.63;;;;;;;;;;5092740;28;20443;-71
2023/10/12 05:59:14;;;;;;;14.95;13.35;;;;;;;;;;5097786;28;20074;-75
2023/10/12 06:01:45;;;;;;;17.23;15.25;;;;;;;;;;5082161;28;20055;-76
2023/10/12 06:04:14;;;;;;;19.95;16.58;;;;;;;;;;5073304;28;20430;-74
2023/10/12 06:06:43;;;;;;;18.73;14.80;;;;;;;;;;5073681;28;20065;-74
2023/10/12 06:09:20;;;;;;;18.88;13.85;;;;;;;;;;5072732;28;20327;-74
2023/10/12 06:11:46;;;;;;;13.55;10.98;;;;;;;;;;5072346;28;20024;-73
2023/10/12 06:14:14;;;;;;;16.30;9.88;;;;;;;;;;5074985;28;20027;-77
2023/10/12 06:16:40;;;;;;;11.52;7.82;;;;;;;;;;5075646;28;20024;-74
2023/10/12 06:19:18;;;;;;;12.10;9.07;;;;;;;;;;5073211;28;20020;-79
2023/10/12 06:21:44;;;;;;;13.02;7.85;;;;;;;;;;5074861;28;20347;-74
2023/10/12 06:24:11;;;;;;;13.13;10.30;;;;;;;;;;5074665;28;20039;-75
2023/10/12 06:26:37;;;;;;;12.73;8.35;;;;;;;;;;5091976;28;20145;-73
2023/10/12 06:29:03;;;;;;;12.73;7.78;;;;;;;;;;5092538;28;20035;-73
2023/10/12 06:31:31;;;;;;;10.07;7.55;;;;;;;;;;5090169;28;20334;-75
2023/10/12 06:34:03;;;;;;;11.30;9.00;;;;;;;;;;5094182;28;20046;-75
2023/10/12 06:36:38;;;;;;;9.43;8.02;;;;;;;;;;5094712;28;20084;-74
2023/10/12 06:44:13;;;;;;;8.80;7.60;;;;;;;;;;5097056;28;20356;-76
2023/10/12 06:46:48;;;;;;;10.63;8.00;;;;;;;;;;5095207;28;20040;-73
2023/10/12 06:49:28;;;;;;;12.00;8.75;;;;;;;;;;5092204;28;20028;-73
2023/10/12 06:51:54;;;;;;;9.98;8.10;;;;;;;;;;5094021;28;20077;-75
2023/10/12 06:54:32;;;;;;;12.57;9.02;;;;;;;;;;5095307;28;20033;-74
2023/10/12 06:57:29;;;;;;;18.65;10.80;;;;;;;;;;5097136;28;20327;-74
2023/10/12 06:59:52;;;;;;;26.27;17.00;;;;;;;;;;5095708;28;20028;-74
2023/10/12 07:02:24;;;;;;;17.30;12.27;;;;;;;;;;5097660;28;20062;-72
2023/10/12 07:04:53;;;;;;;26.52;16.33;;;;;;;;;;5094675;28;20458;-73
2023/10/12 07:07:41;;;;;;;18.07;11.30;;;;;;;;;;5094296;28;20114;-72
2023/10/12 07:12:37;;;;;;;15.35;8.57;;;;;;;;;;5093482;28;20061;-73
2023/10/12 07:15:10;;;;;;;19.27;12.05;;;;;;;;;;5094826;28;20047;-73
2023/10/12 07:17:35;;;;;;;12.85;8.75;;;;;;;;;;5090473;28;20016;-73
2023/10/12 07:20:01;;;;;;;9.95;7.13;;;;;;;;;;5096265;28;20016;-73
2023/10/12 07:22:26;;;;;;;14.93;9.70;;;;;;;;;;5095096;28;20381;-73
2023/10/12 07:24:56;;;;;;;11.20;9.32;;;;;;;;;;5094803;28;20019;-73
2023/10/12 07:27:22;;;;;;;11.63;8.20;;;;;;;;;;5096222;28;20385;-73
2023/10/12 07:30:00;;;;;;;8.82;7.93;;;;;;;;;;5095885;28;20016;-73
2023/10/12 07:32:38;;;;;;;11.45;8.32;;;;;;;;;;5096290;28;20035;-76
2023/10/12 07:35:09;;;;;;;11.57;8.63;;;;;;;;;;5092228;28;20044;-73
2023/10/12 07:37:41;;;;;;;10.80;8.13;;;;;;;;;;5095781;28;20015;-74
2023/10/12 07:40:17;;;;;;;11.52;8.48;;;;;;;;;;5093622;28;20020;-71
2023/10/12 07:42:46;;;;;;;10.05;6.78;;;;;;;;;;5095295;28;20032;-73
2023/10/12 07:45:14;;;;;;;10.85;7.70;;;;;;;;;;5092620;28;20028;-77
2023/10/12 07:47:40;;;;;;;11.23;6.90;;;;;;;;;;5092790;28;20034;-74
2023/10/12 07:50:25;;;;;;;9.48;6.00;;;;;;;;;;5095760;28;20028;-73
2023/10/12 07:52:59;;;;;;;7.85;5.65;;;;;;;;;;5093303;28;20024;-75
2023/10/12 07:55:28;;;;;;;4.95;4.25;;;;;;;;;;5096617;28;20031;-73
2023/10/12 07:57:53;;;;;;;5.72;4.82;;;;;;;;;;5095467;28;20987;-72
2023/10/12 08:00:34;;;;;;;5.75;4.47;;;;;;;;;;5092605;28;20031;-72
2023/10/12 08:05:43;;;;;;;9.32;4.35;;;;;;;;;;5093136;28;20115;-72
2023/10/12 08:08:17;;;;;;;5.82;4.00;;;;;;;;;;5072294;28;20071;-74
2023/10/12 08:21:10;;;;;;;5.47;3.40;;;;;;;;;;5074421;28;20038;-73
2023/10/12 08:23:37;;;;;;;3.75;3.45;;;;;;;;;;5069915;28;20020;-77
2023/10/12 08:26:03;;;;;;;11.65;4.15;;;;;;;;;;5068381;28;20028;-76
2023/10/12 08:28:36;;;;;;;5.88;3.75;;;;;;;;;;5069653;28;20035;-73
2023/10/12 08:31:05;;;;;;;6.75;4.00;;;;;;;;;;5072758;28;20028;-72
2023/10/12 08:33:48;;;;;;;4.38;3.03;;;;;;;;;;5089369;28;20046;-78
2023/10/12 08:38:52;;;;;;;6.15;3.20;;;;;;;;;;5069776;28;20355;-73
2023/10/12 08:44:04;;;;;;;5.78;3.22;;;;;;;;;;5092356;28;20032;-72
2023/10/12 08:54:40;;;;;;;6.07;4.10;;;;;;;;;;5072052;28;20131;-73
2023/10/12 08:57:38;;;;;;;8.05;4.80;;;;;;;;;;5074390;28;20030;-72
2023/10/12 09:03:04;;;;;;;4.40;4.00;;;;;;;;;;5076712;28;20042;-77
2023/10/12 09:05:30;;;;;;;4.47;3.97;;;;;;;;;;5076105;28;20030;-74
2023/10/12 09:08:08;;;;;;;6.88;3.75;;;;;;;;;;5077931;28;20038;-73
2023/10/12 09:13:25;;;;;;;6.43;3.42;;;;;;;;;;5075527;28;20131;-75
2023/10/12 09:15:54;;;;;;;5.28;3.53;;;;;;;;;;5077257;28;20191;-72
2023/10/12 09:18:21;;;;;;;5.47;3.10;;;;;;;;;;5077104;28;20107;-77
2023/10/12 09:23:50;;;;;;;6.80;3.55;;;;;;;;;;5092211;27;20062;-74
2023/10/12 09:26:30;;;;;;;4.45;3.80;;;;;;;;;;5092064;27;20114;-74
2023/10/12 09:36:37;;;;;;;7.18;4.60;;;;;;;;;;5113777;27;20057;-74
2023/10/12 09:39:03;;;;;;;6.65;5.10;;;;;;;;;;5112261;27;20040;-73
2023/10/12 09:41:36;;;;;;;7.78;5.07;;;;;;;;;;5116298;27;20054;-76
2023/10/12 09:44:04;;;;;;;7.13;5.00;;;;;;;;;;5113560;27;20030;-74
2023/10/12 09:46:31;;;;;;;15.20;5.40;;;;;;;;;;5114515;27;20071;-72
2023/10/12 09:49:02;;;;;;;7.40;4.90;;;;;;;;;;5095143;27;20031;-73
2023/10/12 09:51:33;;;;;;;7.70;5.07;;;;;;;;;;5108794;27;20067;-73
2023/10/12 09:54:00;;;;;;;10.63;7.38;;;;;;;;;;5114284;27;20035;-74
2023/10/12 09:56:28;;;;;;;5.55;4.60;;;;;;;;;;5111938;27;20035;-74
2023/10/12 09:59:18;;;;;;;7.60;5.03;;;;;;;;;;5108805;27;20039;-73
2023/10/12 10:04:27;;;;;;;8.48;4.45;;;;;;;;;;5098567;28;20027;-76
2023/10/12 10:09:46;;;;;;;6.93;4.30;;;;;;;;;;5095830;28;20023;-74
2023/10/12 10:12:11;;;;;;;;;;;;;;;;;;5096785;28;20439;-73
2023/10/12 10:14:39;;;;;;;4.43;3.73;;;;;;;;;;5096307;28;19912;-73
2023/10/12 10:17:10;;;;;;;5.07;4.28;;;;;;;;;;5096851;27;20056;-74
2023/10/12 10:19:35;;;;;;;12.98;4.13;;;;;;;;;;5095905;28;20030;-73
2023/10/12 10:22:14;;;;;;;5.70;3.85;;;;;;;;;;5097660;28;20401;-73
2023/10/12 10:24:50;;;;;;;6.68;4.60;;;;;;;;;;5094467;28;20024;-72
2023/10/12 10:27:16;;;;;;;7.32;4.22;;;;;;;;;;5099228;28;20027;-74
2023/10/12 10:29:53;;;;;;;5.07;4.28;;;;;;;;;;5094007;28;20031;-76
2023/10/12 10:32:29;;;;;;;4.82;4.00;;;;;;;;;;5097094;28;20085;-73
2023/10/12 10:34:57;;;;;;;4.95;4.40;;;;;;;;;;5097263;28;20067;-76
2023/10/12 10:38:04;;;;;;;5.43;4.05;;;;;;;;;;5097136;28;20041;-74
2023/10/12 10:40:45;;;;;;;5.47;3.88;;;;;;;;;;5095536;28;20047;-77
2023/10/12 10:43:15;;;;;;;4.40;4.00;;;;;;;;;;5097470;28;20032;-78
2023/10/12 10:45:42;;;;;;;5.88;4.32;;;;;;;;;;5096980;28;20031;-74
2023/10/12 10:48:13;;;;;;;5.30;4.28;;;;;;;;;;5097279;28;20131;-74
2023/10/12 10:50:49;;;;;;;7.60;4.60;;;;;;;;;;5097279;28;20024;-75
2023/10/12 10:53:15;;;;;;;4.95;4.45;;;;;;;;;;5097006;28;20520;-75
2023/10/12 10:55:41;;;;;;;4.15;3.70;;;;;;;;;;5094695;28;20084;-74
2023/10/12 10:58:07;;;;;;;4.88;3.95;;;;;;;;;;5098813;28;20035;-74
2023/10/12 11:00:37;;;;;;;4.50;4.10;;;;;;;;;;5091480;28;20116;-74
2023/10/12 11:03:03;;;;;;;7.43;4.32;;;;;;;;;;5095384;28;20516;-74
2023/10/12 11:05:29;;;;;;;8.95;4.20;;;;;;;;;;5094902;28;20060;-76
2023/10/12 11:07:58;;;;;;;5.15;4.10;;;;;;;;;;5096768;28;20081;-75
2023/10/12 11:10:31;;;;;;;6.95;4.25;;;;;;;;;;5095641;28;20089;-73
2023/10/12 11:13:00;;;;;;;6.18;4.28;;;;;;;;;;5096176;28;20494;-74
2023/10/12 11:15:25;;;;;;;;;;;;;;;;;;5092447;28;20031;-74
2023/10/12 11:18:05;;;;;;;4.87;4.37;;;;;;;;;;5094458;28;19911;-74
2023/10/12 11:20:43;;;;;;;5.28;4.18;;;;;;;;;;5094688;28;20118;-75
2023/10/12 11:23:09;;;;;;;5.50;4.55;;;;;;;;;;5095822;28;20114;-74
2023/10/12 11:25:39;;;;;;;6.65;4.45;;;;;;;;;;5096052;28;20119;-75
2023/10/12 11:28:26;;;;;;;3.97;3.65;;;;;;;;;;5095731;28;20023;-74
2023/10/12 11:30:52;;;;;;;5.40;4.68;;;;;;;;;;5097045;28;20016;-75
2023/10/12 11:33:23;;;;;;;5.65;4.00;;;;;;;;;;5094089;28;20023;-76
2023/10/12 11:35:48;;;;;;;5.13;4.63;;;;;;;;;;5097255;28;20062;-75
2023/10/12 11:38:23;;;;;;;6.10;4.13;;;;;;;;;;5094154;28;20397;-75
2023/10/12 11:40:52;;;;;;;6.40;4.60;;;;;;;;;;5094287;28;20019;-74
2023/10/12 11:43:29;;;;;;;6.15;4.38;;;;;;;;;;5094786;28;20024;-78
2023/10/12 11:46:01;;;;;;;5.68;4.25;;;;;;;;;;5096890;28;20031;-75
2023/10/12 11:48:27;;;;;;;8.27;5.13;;;;;;;;;;5095113;28;20027;-74
2023/10/12 11:50:53;;;;;;;5.43;4.38;;;;;;;;;;5096305;28;20449;-75
2023/10/12 11:53:19;;;;;;;6.25;4.00;;;;;;;;;;5094321;28;20027;-74
2023/10/12 11:55:45;;;;;;;7.80;4.15;;;;;;;;;;5092981;28;20030;-75
2023/10/12 11:58:16;;;;;;;4.78;4.35;;;;;;;;;;5096338;28;20444;-74
2023/10/12 12:00:44;;;;;;;7.53;4.07;;;;;;;;;;5095628;28;20435;-75
2023/10/12 12:03:10;;;;;;;7.68;4.72;;;;;;;;;;5094388;28;20031;-75
2023/10/12 12:05:39;;;;;;;7.65;3.90;;;;;;;;;;5096101;28;20791;-78
2023/10/12 12:08:14;;;;;;;5.53;3.95;;;;;;;;;;5094330;28;20019;-74
2023/10/12 12:10:46;;;;;;;4.95;4.10;;;;;;;;;;5093469;28;20070;-76
2023/10/12 12:13:20;;;;;;;6.65;4.28;;;;;;;;;;5095342;28;20118;-75
2023/10/12 12:15:46;;;;;;;10.23;4.53;;;;;;;;;;5096413;28;20029;-75
2023/10/12 12:18:18;;;;;;;4.03;3.53;;;;;;;;;;5096173;28;20455;-75
2023/10/12 12:20:44;;;;;;;5.55;3.80;;;;;;;;;;5094713;28;20363;-75
2023/10/12 12:23:12;;;;;;;6.72;4.90;;;;;;;;;;5093745;28;20031;-75
2023/10/12 12:25:39;;;;;;;5.35;4.40;;;;;;;;;;5096519;28;20031;-78
2023/10/12 12:28:07;;;;;;;9.02;7.05;;;;;;;;;;5094471;28;20745;-76
2023/10/12 12:30:39;;;;;;;6.82;5.43;;;;;;;;;;5098984;28;20034;-75
2023/10/12 12:33:08;;;;;;;4.72;4.32;;;;;;;;;;5100580;28;20031;-75
2023/10/12 12:35:36;;;;;;;5.40;3.72;;;;;;;;;;5096880;28;20121;-74
2023/10/12 12:38:05;;;;;;;5.03;4.00;;;;;;;;;;5098813;28;20027;-76
2023/10/12 12:40:39;;;;;;;5.05;3.80;;;;;;;;;;5097064;28;20073;-75
2023/10/12 12:43:07;;;;;;;4.47;3.50;;;;;;;;;;5101506;28;20070;-76
2023/10/12 12:45:35;;;;;;;4.53;3.30;;;;;;;;;;5098645;28;20031;-75
2023/10/12 12:48:01;;;;;;;7.05;4.50;;;;;;;;;;5099876;28;20164;-75
2023/10/12 12:50:28;;;;;;;4.65;3.95;;;;;;;;;;5099998;28;20024;-75
2023/10/12 12:52:53;;;;;;;6.82;4.50;;;;;;;;;;5096808;28;20085;-76
2023/10/12 12:55:22;;;;;;;7.75;4.40;;;;;;;;;;5100798;28;20027;-79
2023/10/12 12:57:47;;;;;;;5.18;4.30;;;;;;;;;;5092350;28;20058;-79
2023/10/12 13:00:19;;;;;;;8.32;4.53;;;;;;;;;;5087140;28;20067;-82
2023/10/12 13:02:46;;;;;;;7.78;4.55;;;;;;;;;;5085299;28;20036;-82
2023/10/12 13:05:11;;;;;;;6.28;4.70;;;;;;;;;;5087734;28;20027;-80
2023/10/12 13:07:36;;;;;;;6.45;4.50;;;;;;;;;;5091177;28;20397;-81
2023/10/12 13:10:02;;;;;;;6.85;4.57;;;;;;;;;;5097805;28;20560;-78
2023/10/12 13:12:31;;;;;;;5.90;4.38;;;;;;;;;;5090419;28;20035;-80
2023/10/12 13:15:00;;;;;;;;;;;;;;;;;;5096924;28;20024;-82
2023/10/12 13:17:29;;;;;;;6.70;4.05;;;;;;;;;;5087500;28;20269;-86
2023/10/12 13:19:58;;;;;;;6.63;4.30;;;;;;;;;;5089270;28;20106;-80
2023/10/12 13:22:25;;;;;;;5.93;4.90;;;;;;;;;;5087058;28;20047;-78
2023/10/12 13:24:54;;;;;;;4.40;4.00;;;;;;;;;;5089957;28;20040;-78
2023/10/12 13:27:22;;;;;;;5.45;4.60;;;;;;;;;;5089710;28;20028;-79
2023/10/12 13:29:49;;;;;;;5.30;4.85;;;;;;;;;;5093548;28;20028;-78
2023/10/12 13:32:17;;;;;;;6.47;4.28;;;;;;;;;;5090764;28;20031;-80
2023/10/12 13:34:42;;;;;;;10.10;5.00;;;;;;;;;;5097736;28;20047;-76
2023/10/12 13:37:08;;;;;;;5.65;5.05;;;;;;;;;;5094309;28;20081;-77
2023/10/12 13:39:33;;;;;;;8.63;4.90;;;;;;;;;;5095578;28;20077;-76
2023/10/12 13:41:58;;;;;;;6.55;5.78;;;;;;;;;;5098606;28;20050;-77
2023/10/12 13:44:25;;;;;;;5.10;4.65;;;;;;;;;;5098839;28;20023;-78
2023/10/12 13:46:53;;;;;;;6.35;5.75;;;;;;;;;;5098009;28;20063;-77
2023/10/12 13:49:22;;;;;;;5.88;5.28;;;;;;;;;;5098636;28;20436;-78
2023/10/12 13:51:48;;;;;;;5.20;4.40;;;;;;;;;;5099213;28;20096;-77
2023/10/12 13:54:14;;;;;;;5.45;4.95;;;;;;;;;;5098077;28;20427;-78
2023/10/12 13:56:39;;;;;;;6.93;4.93;;;;;;;;;;5097816;27;20713;-76
2023/10/12 13:59:05;;;;;;;5.43;4.50;;;;;;;;;;5100730;28;20027;-78
2023/10/12 14:01:36;;;;;;;6.30;5.68;;;;;;;;;;5096773;28;20031;-77
2023/10/12 14:04:02;;;;;;;6.22;4.68;;;;;;;;;;5096902;28;20084;-77
2023/10/12 14:06:30;;;;;;;5.53;4.60;;;;;;;;;;5096959;28;20378;-75
2023/10/12 14:08:55;;;;;;;4.67;4.27;;;;;;;;;;5096179;28;20024;-78
2023/10/12 14:11:21;;;;;;;7.55;5.35;;;;;;;;;;5096550;28;20035;-74
2023/10/12 14:13:47;;;;;;;5.15;4.65;;;;;;;;;;5093533;28;20075;-78
2023/10/12 14:16:13;;;;;;;5.10;4.20;;;;;;;;;;5098037;28;20043;-78
2023/10/12 14:18:39;;;;;;;6.50;4.65;;;;;;;;;;5092767;28;20019;-77
2023/10/12 14:21:12;;;;;;;6.07;4.90;;;;;;;;;;5089001;28;20498;-80
2023/10/12 14:23:45;;;;;;;5.55;4.75;;;;;;;;;;5087994;28;20119;-79
2023/10/12 14:26:11;;;;;;;4.97;4.50;;;;;;;;;;5090814;28;20339;-79
2023/10/12 14:28:36;;;;;;;5.90;4.28;;;;;;;;;;5093158;28;20030;-80
2023/10/12 14:31:05;;;;;;;6.72;4.90;;;;;;;;;;5092704;28;20478;-78
2023/10/12 14:33:31;;;;;;;;;;;;;;;;;;5098192;28;20118;-77
2023/10/12 14:35:57;;;;;;;5.20;4.70;;;;;;;;;;5094708;28;20303;-79
2023/10/12 14:38:22;;;;;;;5.80;5.03;;;;;;;;;;5094417;28;20027;-80
2023/10/12 14:40:48;;;;;;;6.20;5.60;;;;;;;;;;5096510;28;20039;-79
2023/10/12 14:43:15;;;;;;;8.07;4.82;;;;;;;;;;5093828;28;20036;-81
2023/10/12 14:45:48;;;;;;;6.10;4.95;;;;;;;;;;5098593;28;20032;-76
2023/10/12 14:48:16;;;;;;;5.38;4.88;;;;;;;;;;5096378;28;20015;-80
2023/10/12 14:50:45;;;;;;;13.73;9.88;;;;;;;;;;5097634;28;20020;-77
2023/10/12 14:53:11;;;;;;;8.25;6.82;;;;;;;;;;5096231;28;20114;-79
2023/10/12 14:55:36;;;;;;;5.80;5.20;;;;;;;;;;5096170;28;20153;-76
2023/10/12 14:58:07;;;;;;;6.72;4.85;;;;;;;;;;5094545;28;20011;-77
2023/10/12 15:00:33;;;;;;;5.55;4.57;;;;;;;;;;5093863;28;20436;-77
2023/10/12 15:02:58;;;;;;;6.85;4.70;;;;;;;;;;5095954;28;20038;-77
2023/10/12 15:05:27;;;;;;;7.15;4.57;;;;;;;;;;5097321;28;20038;-79
2023/10/12 15:07:56;;;;;;;5.10;4.60;;;;;;;;;;5095131;28;20091;-76
2023/10/12 15:10:21;;;;;;;7.60;4.60;;;;;;;;;;5097689;28;20023;-78
2023/10/12 15:12:50;;;;;;;8.10;4.80;;;;;;;;;;5094180;28;21129;-80
2023/10/12 15:15:20;;;;;;;5.10;4.65;;;;;;;;;;5097181;28;20100;-81
2023/10/12 15:17:46;;;;;;;9.02;5.30;;;;;;;;;;5095262;28;20104;-77
2023/10/12 15:20:15;;;;;;;15.45;12.68;;;;;;;;;;5093132;28;20058;-78
2023/10/12 15:22:41;;;;;;;22.40;11.27;;;;;;;;;;5096229;28;20032;-78
2023/10/12 15:25:07;;;;;;;21.58;8.73;;;;;;;;;;5095854;28;20022;-78
2023/10/12 15:27:32;;;;;;;19.20;9.20;;;;;;;;;;5094402;28;20051;-77
2023/10/12 15:29:59;;;;;;;9.10;7.18;;;;;;;;;;5094904;28;20027;-78
2023/10/12 15:32:25;;;;;;;9.57;7.20;;;;;;;;;;5093694;28;20050;-78
2023/10/12 15:34:51;;;;;;;10.60;7.40;;;;;;;;;;5095989;28;20100;-78
2023/10/12 15:37:16;;;;;;;8.95;6.38;;;;;;;;;;5096320;28;20451;-77
2023/10/12 15:39:42;;;;;;;6.78;6.03;;;;;;;;;;5095732;28;20369;-77
2023/10/12 15:42:11;;;;;;;5.72;4.97;;;;;;;;;;5096608;28;20383;-76
2023/10/12 15:44:39;;;;;;;8.00;5.53;;;;;;;;;;5094904;28;20034;-77
2023/10/12 15:47:07;;;;;;;5.78;5.03;;;;;;;;;;5095947;28;20046;-76
2023/10/12 15:49:35;;;;;;;5.90;5.07;;;;;;;;;;5095085;28;20031;-78
2023/10/12 15:52:01;;;;;;;6.82;5.18;;;;;;;;;;5094952;28;20032;-79
2023/10/12 15:54:31;;;;;;;9.50;6.00;;;;;;;;;;5095666;28;20410;-77
2023/10/12 15:56:57;;;;;;;7.53;6.00;;;;;;;;;;5093560;28;20379;-77
2023/10/12 15:59:23;;;;;;;8.43;6.10;;;;;;;;;;5096517;28;20027;-77
2023/10/12 16:01:48;;;;;;;9.25;7.45;;;;;;;;;;5097173;28;20031;-78
2023/10/12 16:04:14;;;;;;;14.13;9.82;;;;;;;;;;5099766;28;20018;-78
2023/10/12 16:06:40;;;;;;;15.30;8.85;;;;;;;;;;5099918;28;20115;-78
2023/10/12 16:09:09;;;;;;;21.10;10.25;;;;;;;;;;5099348;28;20028;-78
2023/10/12 16:11:38;;;;;;;;;;;;;;;;;;5098213;28;20025;-76
2023/10/12 16:14:04;;;;;;;8.90;7.38;;;;;;;;;;5097886;28;19959;-78
2023/10/12 16:16:30;;;;;;;9.40;6.35;;;;;;;;;;5100052;28;20024;-78
2023/10/12 16:18:55;;;;;;;9.18;6.82;;;;;;;;;;5100926;28;20319;-79
2023/10/12 16:21:20;;;;;;;8.60;6.65;;;;;;;;;;5100503;28;20884;-79
2023/10/12 16:23:46;;;;;;;7.43;6.00;;;;;;;;;;5098705;28;20032;-78
2023/10/12 16:26:13;;;;;;;7.03;6.30;;;;;;;;;;5101223;28;20038;-78
2023/10/12 16:28:40;;;;;;;13.23;8.57;;;;;;;;;;5099305;28;20324;-78
2023/10/12 16:31:06;;;;;;;10.98;8.40;;;;;;;;;;5100192;28;20015;-80
2023/10/12 16:33:32;;;;;;;10.73;8.40;;;;;;;;;;5095779;28;20043;-78
2023/10/12 16:35:58;;;;;;;40.33;24.90;;;;;;;;;;5097792;28;20401;-78
2023/10/12 16:38:23;;;;;;;39.58;24.73;;;;;;;;;;5100965;28;20466;-78
2023/10/12 16:40:50;;;;;;;36.05;24.52;;;;;;;;;;5095722;28;20020;-79
2023/10/12 16:43:16;;;;;;;36.50;24.95;;;;;;;;;;5101583;28;20035;-79
2023/10/12 16:45:41;;;;;;;32.05;21.27;;;;;;;;;;5101549;28;20501;-79
2023/10/12 16:48:08;;;;;;;33.85;22.73;;;;;;;;;;5099534;28;20050;-78
2023/10/12 16:50:34;;;;;;;33.58;25.55;;;;;;;;;;5100240;28;20081;-78
2023/10/12 16:52:59;;;;;;;23.75;19.23;;;;;;;;;;5100499;28;20028;-78
2023/10/12 16:55:25;;;;;;;23.40;17.38;;;;;;;;;;5100913;28;20026;-79
2023/10/12 16:57:51;;;;;;;21.77;17.95;;;;;;;;;;5098454;28;20092;-78